Time;durP1;ratioP1;P1;durP2;ratioP2;P2;SDS_P1;SDS_P2;PMS_P1;PMS_P2;Temp;Humidity;BMP_temperature;BMP_pressure;BME280_temperature;BME280_humidity;BME280_pressure;Samples;Min_cycle;Max_cycle;Signal;HPM_P1;HPM_P2
2021/10/01 00:01:46;;;;;;;6.45;1.83;;;;;;;14.48;100.00;101752.63;5083079;28;20093;-56
2021/10/01 00:04:12;;;;;;;5.18;1.40;;;;;;;14.42;100.00;101748.06;5084337;28;20077;-60
2021/10/01 00:06:38;;;;;;;7.05;2.00;;;;;;;14.45;100.00;101749.53;5085289;28;20746;-60
2021/10/01 00:09:04;;;;;;;7.07;1.60;;;;;;;14.44;100.00;101740.59;5050907;28;20075;-59
2021/10/01 00:11:30;;;;;;;7.07;1.73;;;;;;;14.26;100.00;101751.06;5092425;28;20483;-60
2021/10/01 00:13:55;;;;;;;11.38;2.30;;;;;;;14.33;100.00;101749.25;5071403;28;20399;-59
2021/10/01 00:16:21;;;;;;;8.67;1.90;;;;;;;14.34;100.00;101756.31;5068435;28;20457;-60
2021/10/01 00:18:46;;;;;;;8.50;1.83;;;;;;;14.17;100.00;101739.63;5083554;28;20298;-60
2021/10/01 00:21:12;;;;;;;9.80;1.60;;;;;;;14.19;100.00;101738.41;5083771;28;20066;-60
2021/10/01 00:23:37;;;;;;;8.82;1.80;;;;;;;14.38;100.00;101741.41;5067703;28;20268;-59
2021/10/01 00:26:04;;;;;;;6.68;1.40;;;;;;;14.39;100.00;101732.31;5084227;28;20063;-59
2021/10/01 00:28:30;;;;;;;8.88;2.00;;;;;;;14.50;100.00;101733.59;5066858;28;20035;-61
2021/10/01 00:30:56;;;;;;;6.15;1.60;;;;;;;14.45;100.00;101731.50;5085533;28;20043;-60
2021/10/01 00:33:22;;;;;;;10.55;2.38;;;;;;;14.42;100.00;101744.56;5067466;28;20043;-60
2021/10/01 00:35:48;;;;;;;12.33;1.80;;;;;;;14.61;100.00;101713.38;5059125;28;20439;-60
2021/10/01 00:38:14;;;;;;;3.67;1.75;;;;;;;14.47;100.00;101737.53;5082827;28;20279;-62
2021/10/01 00:40:40;;;;;;;15.50;2.30;;;;;;;14.41;100.00;101711.41;5065824;28;20056;-60
2021/10/01 00:43:05;;;;;;;8.93;1.83;;;;;;;14.45;100.00;101714.53;5084317;28;20062;-61
2021/10/01 00:45:31;;;;;;;8.77;1.35;;;;;;;14.49;100.00;101716.63;5067077;28;20063;-57
2021/10/01 00:47:56;;;;;;;6.85;1.50;;;;;;;14.46;100.00;101708.13;5083058;28;20036;-60
2021/10/01 00:50:22;;;;;;;8.03;1.30;;;;;;;14.49;100.00;101708.53;5066211;28;20026;-60
2021/10/01 00:52:49;;;;;;;3.70;1.48;;;;;;;14.43;100.00;101712.03;5066927;28;20304;-59
2021/10/01 00:55:15;;;;;;;4.47;1.60;;;;;;;14.43;100.00;101705.84;5065181;28;20480;-61
2021/10/01 00:57:40;;;;;;;2.65;1.20;;;;;;;14.41;100.00;101706.03;5084435;28;20477;-60
2021/10/01 01:00:11;;;;;;;3.80;1.73;;;;;;;14.43;100.00;101720.13;5066629;28;20031;-59
2021/10/01 01:02:36;;;;;;;2.97;1.10;;;;;;;14.46;100.00;101706.25;5064744;28;20288;-60
2021/10/01 01:05:03;;;;;;;7.15;1.58;;;;;;;14.35;100.00;101706.84;5051533;28;20742;-59
2021/10/01 01:07:55;;;;;;;;;;;;;;;14.36;100.00;101705.81;5056858;28;20040;-60
2021/10/01 01:10:36;;;;;;;10.17;1.47;;;;;;;14.52;100.00;101701.09;5054048;28;19912;-59
2021/10/01 01:13:10;;;;;;;4.30;1.40;;;;;;;14.45;100.00;101688.44;5065720;28;20257;-60
2021/10/01 01:15:44;;;;;;;3.07;1.20;;;;;;;14.59;100.00;101691.19;5076460;28;20744;-59
2021/10/01 01:18:23;;;;;;;4.33;1.50;;;;;;;14.45;100.00;101690.31;5076693;28;20743;-60
2021/10/01 01:20:55;;;;;;;7.33;1.80;;;;;;;14.54;100.00;101691.81;5077674;28;20280;-60
2021/10/01 01:23:30;;;;;;;6.17;1.47;;;;;;;14.62;100.00;101682.72;5094841;28;20759;-61
2021/10/01 01:26:07;;;;;;;8.57;1.40;;;;;;;14.62;100.00;101682.72;5077264;28;20327;-61
2021/10/01 01:28:42;;;;;;;7.43;1.53;;;;;;;14.54;100.00;101685.59;5059681;28;20482;-60
2021/10/01 01:31:44;;;;;;;7.93;1.60;;;;;;;14.15;100.00;101680.66;5076637;28;20277;-59
2021/10/01 01:34:19;;;;;;;5.27;1.30;;;;;;;14.33;100.00;101674.72;5042465;28;20360;-60
2021/10/01 01:36:51;;;;;;;10.70;1.95;;;;;;;14.33;100.00;101663.16;5076732;28;20275;-60
2021/10/01 01:39:17;;;;;;;4.27;1.40;;;;;;;14.43;100.00;101681.63;5076371;28;20177;-60
2021/10/01 01:41:45;;;;;;;7.35;1.50;;;;;;;14.54;100.00;101675.66;5059852;28;20343;-60
2021/10/01 01:44:12;;;;;;;7.83;1.67;;;;;;;14.49;100.00;101672.75;5076672;28;20027;-60
2021/10/01 01:46:40;;;;;;;7.00;1.30;;;;;;;14.33;100.00;101674.72;5076194;28;20260;-59
2021/10/01 01:49:11;;;;;;;4.43;1.70;;;;;;;14.46;100.00;101671.28;5077228;28;20278;-59
2021/10/01 01:51:37;;;;;;;5.27;1.37;;;;;;;14.47;100.00;101669.41;5076345;28;20369;-60
2021/10/01 01:54:04;;;;;;;2.80;1.30;;;;;;;14.52;100.00;101658.88;5076809;28;20265;-61
2021/10/01 01:56:30;;;;;;;;;;;;;;;14.43;100.00;101646.63;5069684;28;20040;-60
2021/10/01 01:58:59;;;;;;;5.43;1.73;;;;;;;14.49;100.00;101649.31;5058925;28;20368;-60
2021/10/01 02:01:38;;;;;;;10.97;1.70;;;;;;;14.53;100.00;101648.91;5041160;28;20269;-60
2021/10/01 02:04:11;;;;;;;9.43;1.87;;;;;;;14.46;100.00;101641.66;5056543;28;20277;-60
2021/10/01 02:06:39;;;;;;;9.15;1.55;;;;;;;14.39;100.00;101638.13;5055830;28;20273;-60
2021/10/01 02:09:05;;;;;;;9.30;1.70;;;;;;;14.55;100.00;101628.03;5066502;28;20123;-61
2021/10/01 02:11:36;;;;;;;5.93;1.63;;;;;;;14.54;100.00;101629.91;5063244;28;20360;-59
2021/10/01 02:14:04;;;;;;;7.68;1.50;;;;;;;14.23;100.00;101633.94;5076284;28;20363;-59
2021/10/01 02:16:32;;;;;;;8.40;1.43;;;;;;;14.28;100.00;101630.63;5075883;28;20040;-58
2021/10/01 02:19:00;;;;;;;4.63;1.57;;;;;;;14.40;100.00;101638.94;5081068;28;20368;-59
2021/10/01 02:21:28;;;;;;;4.53;1.40;;;;;;;14.42;100.00;101620.75;5056260;28;20245;-60
2021/10/01 02:23:54;;;;;;;6.83;1.17;;;;;;;14.49;100.00;101627.81;5055265;28;20356;-61
2021/10/01 02:26:34;;;;;;;7.40;1.58;;;;;;;14.65;100.00;101612.31;5055787;28;20312;-60
2021/10/01 02:29:05;;;;;;;6.93;1.00;;;;;;;14.43;100.00;101609.78;5057590;28;20032;-60
2021/10/01 02:31:40;;;;;;;3.83;1.30;;;;;;;14.57;100.00;101607.13;5072109;28;20281;-55
2021/10/01 02:34:08;;;;;;;2.73;1.30;;;;;;;14.65;100.00;101595.31;5064550;28;20279;-60
2021/10/01 02:36:33;;;;;;;4.60;1.30;;;;;;;14.59;100.00;101602.38;5075180;28;20276;-59
2021/10/01 02:39:00;;;;;;;10.77;1.63;;;;;;;14.52;100.00;101594.28;5075659;28;20363;-58
2021/10/01 02:41:26;;;;;;;6.00;1.80;;;;;;;14.55;100.00;101593.06;5075733;28;20368;-60
2021/10/01 02:43:51;;;;;;;5.80;1.87;;;;;;;14.64;100.00;101597.22;5058472;28;20285;-60
2021/10/01 02:46:17;;;;;;;3.57;1.40;;;;;;;14.61;100.00;101593.03;5075513;28;20024;-59
2021/10/01 02:48:44;;;;;;;8.77;2.13;;;;;;;14.60;100.00;101599.47;5093357;28;20272;-61
2021/10/01 02:51:14;;;;;;;5.63;1.10;;;;;;;14.52;100.00;101580.81;5075493;28;20543;-60
2021/10/01 02:54:11;;;;;;;4.77;1.50;;;;;;;14.64;100.00;101575.66;5075207;28;20074;-60
2021/10/01 02:56:51;;;;;;;6.43;1.90;;;;;;;14.53;100.00;101578.94;5067244;28;20273;-60
2021/10/01 02:59:22;;;;;;;7.60;1.30;;;;;;;14.55;100.00;101563.44;5075603;28;20306;-60
2021/10/01 03:01:49;;;;;;;3.03;1.20;;;;;;;14.59;100.00;101553.94;5075356;28;20269;-60
2021/10/01 03:04:17;;;;;;;8.27;1.50;;;;;;;14.56;100.00;101563.22;5075380;28;20256;-60
2021/10/01 03:06:45;;;;;;;4.63;1.27;;;;;;;14.54;100.00;101570.69;5076381;28;20123;-60
2021/10/01 03:09:11;;;;;;;5.20;1.47;;;;;;;14.44;100.00;101556.81;5076944;28;20276;-60
2021/10/01 03:11:39;;;;;;;10.30;1.30;;;;;;;14.42;100.00;101562.38;5077086;28;20272;-60
2021/10/01 03:14:07;;;;;;;9.57;1.88;;;;;;;14.50;100.00;101561.38;5075489;28;20286;-60
2021/10/01 03:16:35;;;;;;;6.40;1.83;;;;;;;14.47;100.00;101554.50;5075822;28;20113;-61
2021/10/01 03:19:04;;;;;;;6.73;1.70;;;;;;;14.31;100.00;101563.78;5075838;28;20380;-60
2021/10/01 03:21:32;;;;;;;6.17;1.63;;;;;;;14.38;100.00;101534.22;5075411;28;20261;-60
2021/10/01 03:23:58;;;;;;;3.00;1.10;;;;;;;14.22;100.00;101531.91;5075480;28;20646;-61
2021/10/01 03:26:27;;;;;;;5.40;2.13;;;;;;;14.30;100.00;101529.00;5075633;28;20284;-60
2021/10/01 03:28:54;;;;;;;5.43;1.83;;;;;;;14.37;100.00;101527.19;5058237;28;20364;-60
2021/10/01 03:31:19;;;;;;;9.90;1.98;;;;;;;14.21;100.00;101525.69;5074824;28;20862;-60
2021/10/01 03:33:46;;;;;;;12.73;1.77;;;;;;;14.40;100.00;101523.22;5092796;28;20042;-60
2021/10/01 03:36:12;;;;;;;5.70;1.70;;;;;;;14.38;100.00;101525.31;5058165;28;20047;-60
2021/10/01 03:38:41;;;;;;;6.17;2.13;;;;;;;14.30;100.00;101518.25;5078376;28;20205;-59
2021/10/01 03:41:07;;;;;;;7.43;1.20;;;;;;;14.36;100.00;101524.69;5078923;28;20272;-61
2021/10/01 03:43:33;;;;;;;8.75;2.15;;;;;;;14.19;100.00;101517.00;5078977;28;20036;-60
2021/10/01 03:45:59;;;;;;;13.73;1.88;;;;;;;14.11;100.00;101509.94;5096627;28;20446;-59
2021/10/01 03:48:26;;;;;;;5.40;1.10;;;;;;;14.15;100.00;101516.56;5078990;28;20445;-61
2021/10/01 03:50:56;;;;;;;6.93;1.50;;;;;;;14.01;100.00;101512.16;5078558;28;20024;-60
2021/10/01 03:53:22;;;;;;;10.02;1.65;;;;;;;14.04;100.00;101503.69;5078560;28;20627;-59
2021/10/01 03:55:49;;;;;;;3.30;1.23;;;;;;;13.88;100.00;101516.50;5061976;28;20039;-60
2021/10/01 03:58:15;;;;;;;4.90;1.30;;;;;;;13.86;100.00;101499.72;5079391;28;20593;-60
2021/10/01 04:00:44;;;;;;;5.85;2.00;;;;;;;13.87;100.00;101496.00;5078830;28;20131;-56
2021/10/01 04:03:12;;;;;;;3.73;1.47;;;;;;;14.05;100.00;101491.91;5078871;28;20039;-61
2021/10/01 04:05:44;;;;;;;8.77;1.67;;;;;;;13.84;100.00;101490.19;5078645;28;20363;-60
2021/10/01 04:08:11;;;;;;;12.20;1.52;;;;;;;13.89;100.00;101488.56;5078736;28;20818;-60
2021/10/01 04:10:41;;;;;;;5.37;1.60;;;;;;;13.77;100.00;101490.16;5079486;28;20073;-61
2021/10/01 04:13:08;;;;;;;5.43;1.30;;;;;;;13.62;100.00;101491.16;5096312;28;20837;-61
2021/10/01 04:15:38;;;;;;;7.97;1.30;;;;;;;13.72;100.00;101477.31;5078353;28;20035;-60
2021/10/01 04:18:05;;;;;;;5.88;1.45;;;;;;;13.67;100.00;101469.03;5078198;28;20378;-60
2021/10/01 04:20:34;;;;;;;3.50;1.27;;;;;;;13.65;100.00;101475.66;5045585;28;20126;-60
2021/10/01 04:23:00;;;;;;;2.80;1.23;;;;;;;13.59;100.00;101464.66;5078333;28;20273;-60
2021/10/01 04:25:55;;;;;;;5.63;1.70;;;;;;;13.52;100.00;101469.19;5078883;28;20293;-63
2021/10/01 04:28:21;;;;;;;10.77;1.65;;;;;;;13.66;100.00;101474.63;5078192;28;20754;-60
2021/10/01 04:30:51;;;;;;;4.70;1.53;;;;;;;13.59;100.00;101456.59;5077493;28;20040;-59
2021/10/01 04:33:20;;;;;;;8.68;1.48;;;;;;;13.59;100.00;101447.72;5078081;28;20276;-60
2021/10/01 04:35:47;;;;;;;5.97;1.80;;;;;;;13.56;100.00;101465.06;5077747;28;20048;-58
2021/10/01 04:38:13;;;;;;;4.30;1.52;;;;;;;12.27;100.00;101454.44;5096494;28;20291;-59
2021/10/01 04:40:39;;;;;;;4.77;1.37;;;;;;;12.01;100.00;101452.31;5061473;28;20032;-61
2021/10/01 04:43:05;;;;;;;4.97;1.70;;;;;;;11.98;100.00;101455.34;5095907;28;20589;-59
2021/10/01 04:45:33;;;;;;;6.03;1.47;;;;;;;11.93;100.00;101455.06;5077793;28;20027;-60
2021/10/01 04:48:05;;;;;;;5.18;1.73;;;;;;;11.97;100.00;101445.63;5076542;28;20759;-60
2021/10/01 04:50:33;;;;;;;6.57;1.70;;;;;;;11.94;100.00;101437.97;5077493;28;20467;-60
2021/10/01 04:53:00;;;;;;;6.83;1.80;;;;;;;11.97;100.00;101441.13;5095359;28;20244;-60
2021/10/01 04:55:28;;;;;;;6.00;1.23;;;;;;;11.99;100.00;101430.19;5077601;28;20363;-60
2021/10/01 04:57:54;;;;;;;6.03;1.50;;;;;;;12.01;100.00;101434.38;5060710;28;20261;-59
2021/10/01 05:00:45;;;;;;;4.43;1.60;;;;;;;12.00;100.00;101431.88;5090705;28;20052;-60
2021/10/01 05:03:30;;;;;;;5.67;1.53;;;;;;;11.97;100.00;101441.13;5095599;28;20323;-59
2021/10/01 05:06:21;;;;;;;9.70;1.40;;;;;;;12.02;100.00;101444.09;5095133;28;20375;-60
2021/10/01 05:09:05;;;;;;;4.57;1.47;;;;;;;13.26;100.00;101449.19;5095303;28;20608;-60
2021/10/01 05:12:03;;;;;;;13.15;1.95;;;;;;;13.58;100.00;101411.94;5039460;28;20273;-60
2021/10/01 05:14:47;;;;;;;6.97;2.17;;;;;;;13.43;100.00;101406.72;5090715;28;20199;-60
2021/10/01 05:17:33;;;;;;;8.27;2.20;;;;;;;13.48;100.00;101417.69;5095468;28;20334;-61
2021/10/01 05:20:17;;;;;;;10.03;1.53;;;;;;;13.58;100.00;101425.38;5095404;28;20755;-60
2021/10/01 05:22:52;;;;;;;5.40;1.60;;;;;;;13.54;100.00;101423.31;5077219;28;20313;-59
2021/10/01 05:25:18;;;;;;;3.00;1.40;;;;;;;13.57;100.00;101434.47;5077049;28;20284;-59
2021/10/01 05:27:43;;;;;;;9.50;1.63;;;;;;;13.60;100.00;101442.13;5077202;28;20028;-62
2021/10/01 05:30:10;;;;;;;5.60;1.50;;;;;;;13.68;100.00;101429.56;5094661;28;20413;-60
2021/10/01 05:32:36;;;;;;;9.25;1.65;;;;;;;13.59;100.00;101447.72;5076728;28;20020;-60
2021/10/01 05:35:03;;;;;;;8.00;1.47;;;;;;;13.66;100.00;101443.19;5059895;28;20063;-60
2021/10/01 05:37:28;;;;;;;;;;;;;;;13.76;100.00;101438.28;5095520;28;20267;-60
2021/10/01 05:39:54;;;;;;;6.43;1.47;;;;;;;13.74;100.00;101434.97;5094813;28;19908;-59
2021/10/01 05:42:20;;;;;;;6.25;1.45;;;;;;;13.82;100.00;101447.38;5076414;28;20055;-59
2021/10/01 05:44:46;;;;;;;5.00;1.40;;;;;;;13.87;100.00;101449.47;5057455;28;20024;-59
2021/10/01 05:47:30;;;;;;;3.73;1.40;;;;;;;13.77;100.00;101449.84;5074490;28;20158;-60
2021/10/01 05:50:24;;;;;;;7.10;1.67;;;;;;;13.86;100.00;101447.81;5049910;28;20285;-59
2021/10/01 05:53:24;;;;;;;7.17;1.40;;;;;;;13.82;100.00;101441.19;5074280;28;20294;-59
2021/10/01 05:56:11;;;;;;;6.23;1.40;;;;;;;13.81;100.00;101445.72;5022982;28;20303;-60
2021/10/01 05:59:04;;;;;;;4.30;1.50;;;;;;;13.83;100.00;101448.22;5035443;28;20273;-60
2021/10/01 06:01:32;;;;;;;7.17;1.60;;;;;;;13.87;100.00;101446.78;5055946;28;20376;-61
2021/10/01 06:03:57;;;;;;;6.47;1.53;;;;;;;13.83;100.00;101450.91;5090745;28;20260;-60
2021/10/01 06:06:23;;;;;;;9.35;1.90;;;;;;;13.76;100.00;101448.19;5084743;28;20357;-60
2021/10/01 06:08:48;;;;;;;3.70;1.67;;;;;;;13.80;100.00;101449.44;5084186;28;20063;-60
2021/10/01 06:11:14;;;;;;;4.33;1.50;;;;;;;13.72;100.00;101452.31;5086568;28;20419;-60
2021/10/01 06:13:39;;;;;;;3.58;1.60;;;;;;;13.76;100.00;101443.66;5062888;28;20032;-59
2021/10/01 06:16:05;;;;;;;9.07;1.60;;;;;;;13.77;100.00;101455.22;5055640;28;20036;-59
2021/10/01 06:18:30;;;;;;;10.70;1.70;;;;;;;13.76;100.00;101443.66;5056199;28;20028;-60
2021/10/01 06:20:56;;;;;;;2.90;1.13;;;;;;;13.81;100.00;101444.91;5089096;28;20089;-60
2021/10/01 06:23:23;;;;;;;8.77;2.47;;;;;;;13.80;100.00;101432.50;5075904;28;20740;-61
2021/10/01 06:25:49;;;;;;;6.90;1.50;;;;;;;13.73;100.00;101444.06;5093721;28;20040;-60
2021/10/01 06:28:14;;;;;;;5.90;1.58;;;;;;;13.87;100.00;101438.72;5075355;28;20287;-59
2021/10/01 06:30:41;;;;;;;3.77;1.30;;;;;;;13.94;100.00;101433.34;5094149;28;20475;-60
2021/10/01 06:33:07;;;;;;;;;;;;;;;13.94;100.00;101433.34;5076080;28;20081;-61
2021/10/01 06:35:32;;;;;;;10.30;1.40;;;;;;;13.92;100.00;101428.16;5094068;28;20343;-60
2021/10/01 06:37:58;;;;;;;4.63;1.27;;;;;;;13.92;100.00;101425.47;5093635;28;20256;-60
2021/10/01 06:40:24;;;;;;;5.28;1.30;;;;;;;13.97;100.00;101424.88;5093733;28;20070;-60
2021/10/01 06:42:51;;;;;;;7.90;1.70;;;;;;;14.00;100.00;101433.38;5093876;28;20036;-61
2021/10/01 06:45:24;;;;;;;5.70;1.30;;;;;;;14.17;100.00;101412.28;5093007;28;20043;-60
2021/10/01 06:47:58;;;;;;;4.87;1.17;;;;;;;14.14;100.00;101420.78;5093633;28;20736;-60
2021/10/01 07:36:26;;;;;;;4.97;1.20;;;;;;;15.13;100.00;101420.13;5095015;28;20272;-60
2021/10/01 08:19:55;;;;;;;4.73;1.47;;;;;;;15.61;100.00;101416.19;5065118;28;20265;-60
2021/10/01 08:22:20;;;;;;;7.57;1.87;;;;;;;15.59;100.00;101417.47;5063592;28;20276;-59
2021/10/01 08:24:46;;;;;;;2.88;1.20;;;;;;;15.85;100.00;101419.16;5068299;28;20261;-60
2021/10/01 08:27:11;;;;;;;5.13;1.38;;;;;;;15.83;100.00;101423.13;5083523;28;20028;-60
2021/10/01 08:29:37;;;;;;;6.38;2.15;;;;;;;15.87;100.00;101419.78;5088131;28;20089;-60
2021/10/01 08:32:04;;;;;;;4.70;1.70;;;;;;;15.92;100.00;101421.84;5085659;28;20086;-60
2021/10/01 08:34:32;;;;;;;3.47;1.30;;;;;;;16.07;100.00;101413.47;5084142;28;20032;-60
2021/10/01 08:36:58;;;;;;;6.47;1.57;;;;;;;16.00;100.00;101418.09;5053944;28;20256;-60
2021/10/01 08:39:24;;;;;;;7.25;1.52;;;;;;;16.23;100.00;101408.59;5067242;28;20327;-60
2021/10/01 08:41:50;;;;;;;7.53;1.48;;;;;;;16.33;100.00;101400.81;5048745;28;20029;-59
2021/10/01 08:44:17;;;;;;;9.35;1.20;;;;;;;15.93;100.00;101417.31;5066780;28;20435;-60
2021/10/01 08:46:45;;;;;;;4.07;1.30;;;;;;;16.24;100.00;101396.75;5084352;28;20047;-60
2021/10/01 08:49:12;;;;;;;6.80;1.40;;;;;;;16.28;100.00;101403.34;5083250;28;20283;-59
2021/10/01 08:51:38;;;;;;;8.45;1.65;;;;;;;16.15;100.00;101402.41;5085278;28;20283;-61
2021/10/01 08:54:04;;;;;;;;;;;;;;;16.24;100.00;101424.53;5067116;28;20405;-58
2021/10/01 08:56:30;;;;;;;8.30;1.63;;;;;;;15.93;100.00;101407.34;5064806;28;19987;-59
2021/10/01 08:58:55;;;;;;;8.13;3.10;;;;;;;16.00;100.00;101401.91;5084772;28;20275;-60
2021/10/01 09:01:22;;;;;;;6.65;2.20;;;;;;;16.12;100.00;101394.72;5066002;28;20410;-59
2021/10/01 09:03:48;;;;;;;4.93;1.50;;;;;;;15.81;100.00;101426.03;5083107;28;20024;-59
2021/10/01 09:06:15;;;;;;;5.95;1.20;;;;;;;15.93;100.00;101393.03;5082629;28;20055;-55
2021/10/01 09:09:09;;;;;;;6.03;1.40;;;;;;;16.00;100.00;101405.41;5062485;28;20167;-60
2021/10/01 09:11:46;;;;;;;7.17;2.23;;;;;;;15.40;100.00;101411.94;5059752;28;20282;-60
2021/10/01 09:14:21;;;;;;;4.13;2.10;;;;;;;15.89;100.00;101409.63;5062889;28;20269;-58
2021/10/01 09:16:47;;;;;;;4.97;1.73;;;;;;;16.07;100.00;101396.47;5062788;28;20807;-61
2021/10/01 09:19:12;;;;;;;5.88;1.65;;;;;;;16.27;100.00;101393.59;5064801;28;20582;-60
2021/10/01 09:21:45;;;;;;;6.75;1.42;;;;;;;16.12;100.00;101399.31;5063292;28;20090;-59
2021/10/01 09:24:14;;;;;;;10.13;1.37;;;;;;;15.90;100.00;101429.34;5061487;28;20040;-59
2021/10/01 09:26:54;;;;;;;7.03;1.70;;;;;;;15.71;100.00;101383.38;5062131;28;20651;-60
2021/10/01 09:29:34;;;;;;;4.40;1.30;;;;;;;15.87;100.00;101413.56;5046421;28;20352;-59
2021/10/01 09:32:08;;;;;;;2.97;1.60;;;;;;;15.87;100.00;101408.97;5064104;28;20277;-59
2021/10/01 09:34:39;;;;;;;10.07;1.80;;;;;;;15.78;100.00;101400.31;5063566;28;20274;-59
2021/10/01 09:37:13;;;;;;;4.90;1.83;;;;;;;15.82;100.00;101400.72;5062418;28;20273;-59
2021/10/01 09:39:45;;;;;;;9.00;2.43;;;;;;;15.77;100.00;101408.66;5064189;28;20265;-59
2021/10/01 09:42:15;;;;;;;8.47;1.83;;;;;;;15.78;100.00;101404.91;5061619;28;20349;-60
2021/10/01 09:44:44;;;;;;;25.43;2.37;;;;;;;15.76;100.00;101391.63;5063992;28;20332;-59
2021/10/01 09:47:10;;;;;;;10.87;2.00;;;;;;;15.65;100.00;101391.47;5063572;28;20329;-60
2021/10/01 09:49:36;;;;;;;4.28;1.60;;;;;;;15.47;100.00;101420.00;5063633;28;20368;-59
2021/10/01 09:52:04;;;;;;;9.57;1.80;;;;;;;15.62;100.00;101379.28;5062969;28;20029;-59
2021/10/01 09:54:30;;;;;;;9.63;1.63;;;;;;;15.52;100.00;101374.34;5061741;28;20059;-59
2021/10/01 09:57:00;;;;;;;;;;;;;;;15.76;100.00;101366.53;5065401;28;20284;-61
2021/10/01 09:59:27;;;;;;;13.77;2.40;;;;;;;15.95;100.00;101364.78;5070282;28;20391;-58
2021/10/01 10:02:07;;;;;;;7.00;1.80;;;;;;;16.46;100.00;101368.31;5067300;28;20295;-59
2021/10/01 10:04:56;;;;;;;4.37;2.10;;;;;;;16.65;100.00;101359.41;5072471;28;20429;-59
2021/10/01 10:07:24;;;;;;;6.80;1.93;;;;;;;16.50;100.00;101344.41;5057880;28;20293;-57
2021/10/01 10:10:03;;;;;;;6.57;1.53;;;;;;;16.94;100.00;101365.97;5085362;28;20331;-59
2021/10/01 10:12:43;;;;;;;10.67;1.90;;;;;;;17.18;100.00;101345.34;5069513;28;20324;-58
2021/10/01 10:15:17;;;;;;;10.07;2.37;;;;;;;17.40;100.00;101368.34;5092335;28;20261;-58
2021/10/01 10:17:50;;;;;;;4.30;1.70;;;;;;;17.36;100.00;101342.84;5093592;28;20268;-57
2021/10/01 10:20:18;;;;;;;12.50;1.90;;;;;;;17.45;100.00;101350.41;5093558;28;20296;-58
2021/10/01 10:22:43;;;;;;;10.33;1.97;;;;;;;17.91;100.00;101342.63;5093652;28;20259;-59
2021/10/01 10:25:09;;;;;;;6.32;1.80;;;;;;;18.22;100.00;101355.28;5092794;28;20433;-59
2021/10/01 10:27:35;;;;;;;8.43;1.55;;;;;;;18.02;100.00;101330.22;5092661;28;20068;-59
2021/10/01 10:30:03;;;;;;;7.60;1.55;;;;;;;18.23;100.00;101338.00;5086692;28;20040;-58
2021/10/01 10:32:31;;;;;;;7.00;1.40;;;;;;;17.98;100.00;101339.00;5072834;28;20081;-59
2021/10/01 10:35:06;;;;;;;6.50;1.47;;;;;;;17.91;100.00;101329.09;5073269;28;20040;-59
2021/10/01 10:37:42;;;;;;;6.33;2.13;;;;;;;18.01;100.00;101327.72;5072319;28;20420;-59
2021/10/01 10:40:13;;;;;;;5.35;1.50;;;;;;;18.01;100.00;101352.06;5087671;28;20035;-59
2021/10/01 10:42:46;;;;;;;7.97;1.80;;;;;;;18.02;100.00;101348.34;5092584;28;20039;-59
2021/10/01 10:45:18;;;;;;;11.87;1.70;;;;;;;18.14;100.00;101332.94;5092557;28;20109;-60
2021/10/01 10:47:57;;;;;;;6.97;1.50;;;;;;;18.17;100.00;101315.41;5092873;28;20032;-59
2021/10/01 10:50:25;;;;;;;7.47;1.60;;;;;;;18.42;100.00;101330.59;5092722;28;20115;-59
2021/10/01 10:55:35;;;;;;;7.17;1.50;;;;;;;18.57;100.00;101346.34;5093050;28;20028;-59
2021/10/01 10:58:33;;;;;;;7.83;1.60;;;;;;;18.66;100.00;101323.25;5092910;28;20047;-59
2021/10/01 11:01:14;;;;;;;5.60;1.50;;;;;;;19.06;100.00;101317.06;5092285;28;20040;-59
2021/10/01 11:03:41;;;;;;;7.50;1.60;;;;;;;19.37;100.00;101324.13;5092461;28;20028;-59
2021/10/01 11:06:09;;;;;;;7.78;1.55;;;;;;;19.74;100.00;101310.13;5058029;28;20356;-57
2021/10/01 11:08:39;;;;;;;7.00;1.57;;;;;;;20.47;90.01;101317.53;5092678;28;20043;-60
2021/10/01 11:11:25;;;;;;;6.50;1.37;;;;;;;20.86;85.96;101314.78;5074747;28;20056;-59
2021/10/01 11:13:51;;;;;;;9.48;2.15;;;;;;;20.90;86.22;101301.50;5092560;28;20119;-57
2021/10/01 11:16:18;;;;;;;3.35;1.55;;;;;;;20.51;91.15;101296.09;5090308;28;20115;-58
2021/10/01 11:21:27;;;;;;;6.70;1.80;;;;;;;19.93;96.96;101297.16;5072415;28;20107;-58
2021/10/01 11:24:07;;;;;;;9.37;1.33;;;;;;;19.99;95.63;101304.34;5079109;28;20024;-59
2021/10/01 11:26:36;;;;;;;11.87;1.93;;;;;;;19.92;95.45;101301.78;5080144;28;20032;-59
2021/10/01 11:29:04;;;;;;;7.07;1.20;;;;;;;19.61;93.80;101314.84;5063802;28;20036;-59
2021/10/01 11:31:38;;;;;;;5.83;1.43;;;;;;;19.83;94.59;101297.00;5081214;28;20032;-59
2021/10/01 11:34:04;;;;;;;9.23;1.47;;;;;;;19.96;95.14;101295.88;5088200;28;20047;-59
2021/10/01 11:36:30;;;;;;;3.80;1.27;;;;;;;18.49;100.00;101296.91;5091652;28;20020;-59
2021/10/01 11:39:22;;;;;;;2.67;1.13;;;;;;;18.31;100.00;101295.16;5089337;28;20028;-60
2021/10/01 11:41:48;;;;;;;9.17;1.83;;;;;;;18.70;100.00;101281.09;5061611;28;20043;-59
2021/10/01 11:44:15;;;;;;;6.32;0.93;;;;;;;18.51;100.00;101287.72;5080739;28;20016;-59
2021/10/01 11:46:46;;;;;;;3.77;1.07;;;;;;;18.19;100.00;101291.63;5080027;28;20029;-59
2021/10/01 11:49:32;;;;;;;4.33;1.23;;;;;;;18.14;100.00;101281.50;5090842;28;20047;-59
2021/10/01 11:52:00;;;;;;;6.33;1.67;;;;;;;18.11;100.00;101276.56;5054356;28;20150;-59
2021/10/01 11:54:27;;;;;;;6.57;1.33;;;;;;;18.02;100.00;101275.28;5077226;28;20477;-59
2021/10/01 11:56:54;;;;;;;;;;;;;;;18.11;100.00;101276.56;5082800;28;20040;-61
2021/10/01 11:59:21;;;;;;;8.30;1.55;;;;;;;18.43;100.00;101269.97;5087609;28;19905;-58
2021/10/01 12:01:58;;;;;;;5.33;1.70;;;;;;;18.83;100.00;101252.91;5088615;28;20036;-60
2021/10/01 12:04:32;;;;;;;8.80;1.30;;;;;;;19.18;100.00;101256.56;5087583;28;20482;-59
2021/10/01 12:07:05;;;;;;;9.57;2.13;;;;;;;19.14;97.36;101272.50;5092744;28;20098;-59
2021/10/01 12:09:32;;;;;;;6.43;1.67;;;;;;;19.57;96.79;101259.41;5056432;28;20058;-58
2021/10/01 12:12:06;;;;;;;7.93;1.90;;;;;;;19.49;96.55;101232.69;5075590;28;20322;-58
2021/10/01 12:14:31;;;;;;;10.47;1.30;;;;;;;19.63;89.81;101261.16;5074381;28;20093;-58
2021/10/01 12:17:09;;;;;;;4.03;1.23;;;;;;;19.61;93.35;101238.03;5085594;28;20028;-59
2021/10/01 12:19:35;;;;;;;7.17;1.17;;;;;;;18.99;94.75;101232.38;5075226;28;20098;-60
2021/10/01 12:22:12;;;;;;;5.65;1.20;;;;;;;18.77;100.00;101284.50;5075165;28;20556;-59
2021/10/01 12:24:55;;;;;;;8.27;1.53;;;;;;;18.84;100.00;101259.97;5076174;28;20352;-59
2021/10/01 12:27:44;;;;;;;4.50;1.20;;;;;;;18.77;100.00;101264.69;5057979;28;20150;-59
2021/10/01 12:30:10;;;;;;;6.70;1.73;;;;;;;18.85;100.00;101258.91;5078544;28;20167;-59
2021/10/01 12:32:37;;;;;;;;;;;;;;;18.87;100.00;101253.22;5057866;28;20468;-58
2021/10/01 12:35:05;;;;;;;6.57;3.03;;;;;;;18.80;100.00;101253.41;5075411;28;20259;-59
2021/10/01 12:37:37;;;;;;;8.53;2.03;;;;;;;18.78;100.00;101261.75;5057714;28;20028;-60
2021/10/01 12:40:04;;;;;;;6.23;1.60;;;;;;;19.44;96.82;101244.25;5059121;28;20040;-60
2021/10/01 12:42:35;;;;;;;4.07;1.40;;;;;;;19.89;93.41;101241.72;5075933;28;20419;-61
2021/10/01 12:45:03;;;;;;;3.33;1.03;;;;;;;19.93;86.68;101251.03;5059944;28;20127;-59
2021/10/01 12:47:33;;;;;;;4.67;1.10;;;;;;;19.77;88.89;101245.34;5078800;28;20028;-60
2021/10/01 12:50:15;;;;;;;5.67;1.60;;;;;;;21.22;73.05;101259.16;5083179;28;20060;-61
2021/10/01 12:52:44;;;;;;;4.23;1.27;;;;;;;19.73;85.70;101265.09;5075206;28;20039;-60
2021/10/01 12:55:14;;;;;;;5.77;1.13;;;;;;;19.96;81.47;101247.84;5075567;28;20074;-60
2021/10/01 12:57:41;;;;;;;5.63;1.50;;;;;;;19.76;80.74;101253.72;5089352;28;20032;-59
2021/10/01 13:00:10;;;;;;;3.73;0.90;;;;;;;19.69;80.29;101236.81;5094937;28;20097;-60
2021/10/01 13:02:39;;;;;;;8.10;2.10;;;;;;;19.76;79.52;101251.03;5095420;28;20492;-60
2021/10/01 13:05:07;;;;;;;11.50;1.70;;;;;;;19.69;80.84;101247.66;5095369;28;20119;-59
2021/10/01 13:07:33;;;;;;;6.27;1.50;;;;;;;19.46;85.03;101234.00;5076175;28;20075;-60